createdAt,value
2022-11-18T00:00:45.794Z,12.90
2022-11-18T00:05:54.610Z,12.80
2022-11-18T00:10:57.742Z,12.80
2022-11-18T00:16:07.318Z,12.80
2022-11-18T00:21:12.810Z,12.70
2022-11-18T00:26:16.400Z,12.60
2022-11-18T00:31:21.122Z,12.60
2022-11-18T00:36:24.294Z,12.60
2022-11-18T00:41:47.628Z,12.60
2022-11-18T00:46:52.398Z,12.60
2022-11-18T00:51:55.522Z,12.60
2022-11-18T00:56:58.640Z,12.60
2022-11-18T01:02:03.161Z,12.50
2022-11-18T01:07:06.435Z,12.50
2022-11-18T01:12:32.383Z,12.50
2022-11-18T01:17:36.924Z,12.50
2022-11-18T01:22:40.074Z,12.50
2022-11-18T01:27:43.319Z,12.40
2022-11-18T01:32:47.807Z,12.40
2022-11-18T01:37:50.952Z,12.30
2022-11-18T01:42:54.216Z,12.30
2022-11-18T01:48:02.706Z,12.30
2022-11-18T01:53:09.858Z,12.20
2022-11-18T01:58:19.053Z,12.20
2022-11-18T02:03:24.501Z,12.20
2022-11-18T02:08:30.274Z,12.20
2022-11-18T02:13:33.518Z,12.10
2022-11-18T02:18:48.786Z,12.10
2022-11-18T02:24:26.371Z,12.20
2022-11-18T02:29:38.540Z,12.20
2022-11-18T02:34:50.065Z,12.20
2022-11-18T02:39:57.957Z,12.30
2022-11-18T02:45:07.035Z,12.40
2022-11-18T02:50:14.480Z,12.40
2022-11-18T02:55:19.482Z,12.50
2022-11-18T03:00:24.005Z,12.50
2022-11-18T03:05:37.800Z,12.60
2022-11-18T03:10:45.516Z,12.60
2022-11-18T03:16:00.756Z,12.60
2022-11-18T03:21:12.065Z,12.60
2022-11-18T03:26:19.873Z,12.50
2022-11-18T03:31:27.622Z,12.50
2022-11-18T03:36:37.565Z,12.50
2022-11-18T03:41:46.878Z,12.50
2022-11-18T03:46:55.884Z,12.60
2022-11-18T03:52:04.138Z,12.60
2022-11-18T03:57:13.510Z,12.60
2022-11-18T04:02:20.069Z,12.60
2022-11-18T04:07:29.073Z,12.70
2022-11-18T04:12:36.533Z,12.60
2022-11-18T04:17:43.054Z,12.60
2022-11-18T04:22:46.430Z,12.60
2022-11-18T04:27:49.909Z,12.60
2022-11-18T04:32:54.440Z,12.60
2022-11-18T04:37:57.526Z,12.50
2022-11-18T04:43:02.670Z,12.50
2022-11-18T04:48:07.849Z,12.40
2022-11-18T04:53:10.959Z,12.40
2022-11-18T04:58:14.048Z,12.40
2022-11-18T05:03:18.504Z,12.30
2022-11-18T05:08:21.620Z,12.30
2022-11-18T05:13:24.841Z,12.30
2022-11-18T05:18:29.310Z,12.30
2022-11-18T05:23:32.410Z,12.20
2022-11-18T05:28:35.981Z,12.30
2022-11-18T05:33:40.821Z,12.30
2022-11-18T05:38:44.511Z,12.30
2022-11-18T05:43:47.601Z,12.40
2022-11-18T05:48:52.140Z,12.40
2022-11-18T05:53:56.889Z,12.40
2022-11-18T05:58:59.985Z,12.40
2022-11-18T06:04:10.874Z,12.40
2022-11-18T06:09:16.646Z,12.30
2022-11-18T06:14:23.377Z,12.30
2022-11-18T06:19:28.153Z,12.30
2022-11-18T06:24:34.500Z,12.30
2022-11-18T06:29:37.611Z,12.30
2022-11-18T06:34:42.301Z,12.30
2022-11-18T06:39:45.558Z,12.20
2022-11-18T06:44:48.645Z,12.20
2022-11-18T06:49:53.129Z,12.20
2022-11-18T06:54:56.240Z,12.20
2022-11-18T07:00:02.334Z,12.20
2022-11-18T07:05:07.868Z,12.20
2022-11-18T07:10:11.370Z,12.20
2022-11-18T07:15:14.473Z,12.20
2022-11-18T07:20:19.149Z,12.20
2022-11-18T07:25:22.303Z,12.20
2022-11-18T07:30:25.443Z,12.20
2022-11-18T07:35:29.934Z,12.20
2022-11-18T07:40:33.037Z,12.10
2022-11-18T07:45:36.186Z,12.00
2022-11-18T07:50:45.837Z,12.00
2022-11-18T07:55:50.203Z,12.00
2022-11-18T08:00:53.517Z,11.90
2022-11-18T08:06:02.189Z,11.90
2022-11-18T08:11:07.162Z,11.90
2022-11-18T08:16:14.884Z,11.80
2022-11-18T08:21:20.559Z,11.80
2022-11-18T08:26:24.971Z,11.80
2022-11-18T08:31:30.580Z,11.80
2022-11-18T08:36:36.876Z,11.70
2022-11-18T08:41:41.640Z,11.70
2022-11-18T08:46:45.656Z,11.70
2022-11-18T08:51:50.140Z,11.60
2022-11-18T08:56:53.368Z,11.50
2022-11-18T09:01:56.554Z,11.50
2022-11-18T09:07:01.184Z,11.40
2022-11-18T09:12:04.499Z,11.40
2022-11-18T09:17:07.757Z,11.40
2022-11-18T09:22:19.348Z,11.40
2022-11-18T09:27:22.449Z,11.40
2022-11-18T09:32:26.138Z,11.40
2022-11-18T09:37:30.687Z,11.40
2022-11-18T09:42:54.942Z,11.40
2022-11-18T09:48:00.198Z,11.30
2022-11-18T09:53:18.518Z,11.30
2022-11-18T09:58:31.125Z,11.30
2022-11-18T10:03:34.793Z,11.30
2022-11-18T10:08:44.620Z,11.20
2022-11-18T10:14:01.303Z,11.20
2022-11-18T10:19:12.430Z,11.20
2022-11-18T10:24:21.237Z,11.20
2022-11-18T10:29:25.105Z,11.20
2022-11-18T10:34:28.265Z,11.30
2022-11-18T10:39:33.648Z,11.30
2022-11-18T10:44:39.116Z,11.30
2022-11-18T10:49:42.284Z,11.30
2022-11-18T10:54:47.244Z,11.40
2022-11-18T10:59:52.680Z,11.40
2022-11-18T11:04:56.045Z,11.50
2022-11-18T11:10:20.882Z,11.50
2022-11-18T11:15:29.884Z,11.60
2022-11-18T11:20:33.099Z,11.70
2022-11-18T11:31:16.118Z,11.80
2022-11-18T11:36:33.533Z,11.80
2022-11-18T11:41:46.890Z,11.90
2022-11-18T11:47:24.991Z,12.00
2022-11-18T11:52:37.884Z,11.90
2022-11-18T11:57:54.309Z,11.80
2022-11-18T12:03:06.757Z,11.80
2022-11-18T12:08:15.839Z,11.80
2022-11-18T12:13:38.907Z,11.80
2022-11-18T12:18:47.855Z,11.80
2022-11-18T12:24:30.986Z,11.70
2022-11-18T12:29:54.220Z,11.70
2022-11-18T12:35:01.052Z,11.70
2022-11-18T12:40:04.188Z,11.70
2022-11-18T12:45:40.607Z,11.70
2022-11-18T12:50:52.522Z,11.70
2022-11-18T12:55:55.999Z,11.60
2022-11-18T13:01:07.842Z,11.60
2022-11-18T13:06:25.376Z,11.50
2022-11-18T13:11:48.236Z,11.50
2022-11-18T13:17:08.798Z,11.40
2022-11-18T13:22:37.158Z,11.30
2022-11-18T13:27:50.656Z,11.30
2022-11-18T13:32:58.896Z,11.30
2022-11-18T13:38:04.078Z,11.30
2022-11-18T13:43:07.232Z,11.20
2022-11-18T13:48:15.333Z,11.20
2022-11-18T13:53:30.491Z,11.20
2022-11-18T13:59:10.326Z,11.20
2022-11-18T14:04:05.091Z,11.20
2022-11-18T14:09:19.966Z,11.10
2022-11-18T14:14:30.644Z,11.10
2022-11-18T14:19:34.923Z,11.10
2022-11-18T14:24:39.529Z,11.10
2022-11-18T14:29:50.771Z,11.10
2022-11-18T14:35:00.247Z,11.10
2022-11-18T14:40:04.996Z,11.10
2022-11-18T14:45:08.699Z,11.10
2022-11-18T14:50:14.015Z,11.10
2022-11-18T14:55:18.545Z,11.10
2022-11-18T15:00:21.860Z,11.10
2022-11-18T15:05:24.986Z,11.10
2022-11-18T15:10:29.551Z,11.10
2022-11-18T15:15:32.680Z,11.10
2022-11-18T15:20:35.766Z,11.10
2022-11-18T15:25:40.423Z,11.10
2022-11-18T15:30:43.663Z,11.10
2022-11-18T15:35:46.755Z,11.00
2022-11-18T15:40:51.260Z,11.10
2022-11-18T15:45:58.219Z,11.10
2022-11-18T15:51:01.285Z,11.10
2022-11-18T15:56:27.508Z,11.10
2022-11-18T16:01:32.695Z,11.10
2022-11-18T16:06:36.046Z,11.20
2022-11-18T16:11:58.421Z,11.20
2022-11-18T16:17:01.531Z,11.20
2022-11-18T16:22:04.619Z,11.30
2022-11-18T16:27:09.083Z,11.30
2022-11-18T16:32:15.239Z,11.30
2022-11-18T16:37:18.314Z,11.30
2022-11-18T16:42:22.967Z,11.40
2022-11-18T16:47:26.126Z,11.40
2022-11-18T16:52:29.297Z,11.40
2022-11-18T16:57:33.815Z,11.40
2022-11-18T17:02:36.945Z,11.40
2022-11-18T17:07:40.244Z,11.40
2022-11-18T17:12:44.751Z,11.50
2022-11-18T17:17:47.815Z,11.50
2022-11-18T17:22:53.394Z,11.50
2022-11-18T17:27:57.833Z,11.50
2022-11-18T17:33:00.972Z,11.50
2022-11-18T17:38:04.066Z,11.50
2022-11-18T17:43:08.555Z,11.60
2022-11-18T17:48:11.805Z,11.60
2022-11-18T17:53:15.340Z,11.60
2022-11-18T17:58:19.796Z,11.60
2022-11-18T18:03:22.830Z,11.60
2022-11-18T18:08:26.006Z,11.60
2022-11-18T18:13:47.919Z,11.50
2022-11-18T18:18:51.361Z,11.50
2022-11-18T18:23:54.740Z,11.50
2022-11-18T18:28:59.435Z,11.40
2022-11-18T18:34:02.841Z,11.40
2022-11-18T18:39:06.022Z,11.40
2022-11-18T18:44:15.351Z,11.40
2022-11-18T18:49:22.435Z,11.40
2022-11-18T18:54:25.499Z,11.30
2022-11-18T18:59:30.106Z,11.30
2022-11-18T19:04:33.246Z,11.20
2022-11-18T19:09:37.656Z,11.20
2022-11-18T19:14:42.153Z,11.10
2022-11-18T19:20:02.668Z,11.10
2022-11-18T19:25:06.360Z,11.00
2022-11-18T19:30:12.558Z,11.00
2022-11-18T19:35:15.872Z,11.00
2022-11-18T19:40:19.386Z,11.00
2022-11-18T19:45:23.900Z,11.00
2022-11-18T19:50:27.076Z,11.00
2022-11-18T19:55:30.293Z,11.00
2022-11-18T20:00:34.874Z,11.00
2022-11-18T20:05:53.238Z,11.00
2022-11-18T20:10:56.472Z,11.00
2022-11-18T20:16:05.202Z,11.00
2022-11-18T20:21:10.553Z,11.00
2022-11-18T20:26:16.232Z,11.00
2022-11-18T20:31:22.661Z,11.00
2022-11-18T20:36:27.729Z,11.00
2022-11-18T20:41:31.967Z,11.00
2022-11-18T20:46:37.759Z,11.00
2022-11-18T20:51:40.878Z,11.00
2022-11-18T20:56:44.040Z,11.00
2022-11-18T21:01:49.116Z,11.00
2022-11-18T21:06:57.434Z,11.00
2022-11-18T21:12:00.814Z,10.90
2022-11-18T21:17:05.721Z,10.90
2022-11-18T21:22:08.866Z,10.90
2022-11-18T21:27:12.734Z,10.90
2022-11-18T21:32:17.208Z,10.80
2022-11-18T21:37:20.355Z,10.80
2022-11-18T21:42:23.566Z,10.80
2022-11-18T21:47:28.169Z,10.70
2022-11-18T21:52:31.433Z,10.70
2022-11-18T21:57:34.695Z,10.70
2022-11-18T22:02:39.436Z,10.70
2022-11-18T22:07:42.564Z,10.70
2022-11-18T22:12:48.580Z,10.70
2022-11-18T22:17:53.198Z,10.70
2022-11-18T22:22:56.381Z,10.70
2022-11-18T22:27:59.532Z,10.70
2022-11-18T22:33:04.056Z,10.60
2022-11-18T22:38:07.117Z,10.60
2022-11-18T22:43:10.346Z,10.60
2022-11-18T22:48:14.830Z,10.60
2022-11-18T22:53:18.017Z,10.60
2022-11-18T22:58:21.206Z,10.60
2022-11-18T23:03:25.679Z,10.50
2022-11-18T23:08:33.607Z,10.50
2022-11-18T23:13:54.575Z,10.50
2022-11-18T23:18:59.047Z,10.50
2022-11-18T23:24:02.328Z,10.50
2022-11-18T23:29:05.498Z,10.40
2022-11-18T23:34:11.206Z,10.50
2022-11-18T23:39:14.764Z,10.50
2022-11-18T23:44:37.863Z,10.50
2022-11-18T23:49:42.372Z,10.50
2022-11-18T23:54:45.441Z,10.40
2022-11-18T23:59:48.547Z,10.40
